X  Cerrar Datos meteorológicos de aviación METAR     EHKD De Kooy Airport
Temperatura
64°F Temperatura
57°F Punto de rocío
78% Humedad



Viento
21 MPH
34 KM/H
9 M/S
18 NUDO



230°
SO
Condiciones actuales

Nubes mayormente dispersas Nubes mayormente dispersas
Presión 1006.77 (hPa) - 29.73 (inHg)
Visibilidad 6 (milla) - 9.7 (km)
Aeropuerto
Código de aeropuerto EHKD

localidad: De Kooy Airport
Distancia: 34 (mi)

Metar:
EHKD 160755Z AUTO 23018KT 190V260 9999 SCT015 OVC019 18/14 Q1007 WHT SCT015 BKN020

Hora: 16-07-2024 09:55 CEST